Time;durP1;ratioP1;P1;durP2;ratioP2;P2;SDS_P1;SDS_P2;PMS_P1;PMS_P2;Temp;Humidity;BMP_temperature;BMP_pressure;BME280_temperature;BME280_humidity;BME280_pressure;Samples;Min_cycle;Max_cycle;Signal;HPM_P1;HPM_P2
2023/09/20 00:02:08;;;;;;;3.30;1.25;;;;;;;23.45;60.84;100821.91;5010840;28;20026;-70
2023/09/20 00:04:35;;;;;;;4.40;1.30;;;;;;;24.31;57.57;100824.25;4992714;28;20473;-70
2023/09/20 00:07:01;;;;;;;6.22;1.70;;;;;;;24.15;56.30;100824.44;5009108;28;20017;-69
2023/09/20 00:09:30;;;;;;;5.55;1.70;;;;;;;24.35;55.36;100822.22;4993521;28;20422;-70
2023/09/20 00:11:56;;;;;;;5.97;1.60;;;;;;;23.53;59.80;100827.59;5009858;28;20037;-69
2023/09/20 00:14:21;;;;;;;3.30;1.70;;;;;;;23.40;60.03;100827.53;4993406;28;20026;-70
2023/09/20 00:16:47;;;;;;;10.65;1.85;;;;;;;23.76;59.94;100823.44;4993341;28;20033;-70
2023/09/20 00:19:12;;;;;;;4.50;1.23;;;;;;;23.09;61.49;100831.25;5008535;28;20060;-69
2023/09/20 00:21:38;;;;;;;6.05;1.58;;;;;;;23.04;61.86;100832.41;5010831;28;20563;-70
2023/09/20 00:24:06;;;;;;;5.57;1.40;;;;;;;22.95;63.13;100826.78;4988668;28;20097;-70
2023/09/20 00:26:34;;;;;;;7.22;1.42;;;;;;;23.41;61.04;100813.25;4990552;28;20502;-69
2023/09/20 00:29:05;;;;;;;9.02;1.95;;;;;;;22.78;64.41;100826.03;4989449;28;20122;-69
2023/09/20 00:31:31;;;;;;;7.13;1.63;;;;;;;22.81;63.72;100815.19;4973542;28;20026;-69
2023/09/20 00:33:56;;;;;;;4.95;1.63;;;;;;;23.35;62.70;100814.47;4972446;28;20477;-69
2023/09/20 00:36:23;;;;;;;4.70;1.67;;;;;;;22.99;61.96;100812.31;4991013;28;20109;-70
2023/09/20 00:38:48;;;;;;;2.35;1.13;;;;;;;23.38;61.01;100802.75;4989003;28;20129;-70
2023/09/20 00:41:15;;;;;;;3.90;1.50;;;;;;;22.91;63.03;100810.13;4972484;28;20113;-69
2023/09/20 00:43:41;;;;;;;3.25;1.30;;;;;;;23.33;62.60;100795.06;4989804;28;20027;-69
2023/09/20 00:46:07;;;;;;;3.90;1.63;;;;;;;22.69;63.23;100799.94;4988418;28;20026;-68
2023/09/20 00:48:33;;;;;;;4.20;2.08;;;;;;;22.57;64.04;100808.69;4989415;28;20022;-69
2023/09/20 00:50:59;;;;;;;6.30;1.65;;;;;;;23.17;61.29;100805.84;4973052;28;20018;-70
2023/09/20 00:53:25;;;;;;;12.38;2.30;;;;;;;23.28;59.45;100812.31;4989874;28;20398;-69
2023/09/20 00:55:51;;;;;;;6.80;1.70;;;;;;;23.31;60.28;100801.47;4989026;28;20057;-70
2023/09/20 00:58:19;;;;;;;4.28;1.50;;;;;;;23.77;57.72;100808.25;4989423;28;20109;-69
2023/09/20 01:00:45;;;;;;;5.78;2.10;;;;;;;23.49;58.90;100805.63;4988928;28;20029;-69
2023/09/20 01:03:16;;;;;;;8.00;1.90;;;;;;;22.97;60.30;100811.56;4988402;28;20026;-69
2023/09/20 01:05:42;;;;;;;4.78;1.58;;;;;;;23.45;58.08;100809.44;4989170;28;20026;-69
2023/09/20 01:08:08;;;;;;;3.95;1.10;;;;;;;24.69;55.40;100806.56;4989563;28;20019;-70
2023/09/20 01:10:37;;;;;;;4.78;1.05;;;;;;;23.27;59.78;100805.28;4972823;28;20026;-70
2023/09/20 01:13:05;;;;;;;7.50;1.73;;;;;;;24.52;55.96;100799.69;4972908;28;20041;-70
2023/09/20 01:15:35;;;;;;;6.90;1.85;;;;;;;22.93;61.70;100796.69;4988679;28;20489;-69
2023/09/20 01:18:02;;;;;;;4.30;1.70;;;;;;;23.72;58.03;100784.56;4990027;28;20030;-69
2023/09/20 01:20:29;;;;;;;3.55;1.50;;;;;;;24.22;56.71;100788.34;4990418;28;20089;-69
2023/09/20 01:22:57;;;;;;;3.67;1.30;;;;;;;23.29;58.91;100782.06;4987913;28;20050;-70
2023/09/20 01:25:49;;;;;;;5.50;1.55;;;;;;;23.98;58.18;100790.00;4973026;28;20077;-70
2023/09/20 01:28:14;;;;;;;9.17;2.53;;;;;;;24.53;55.24;100790.72;4969620;28;20153;-69
2023/09/20 01:30:41;;;;;;;4.60;1.35;;;;;;;24.47;55.16;100786.66;4989078;28;20116;-69
2023/09/20 01:33:08;;;;;;;8.43;2.47;;;;;;;24.65;54.44;100783.72;4990023;28;20026;-69
2023/09/20 01:35:35;;;;;;;6.55;1.70;;;;;;;23.48;57.47;100793.22;4990853;28;20030;-70
2023/09/20 01:38:06;;;;;;;11.00;2.35;;;;;;;23.65;57.58;100789.44;4976511;28;20061;-69
2023/09/20 01:40:33;;;;;;;2.25;1.20;;;;;;;23.82;56.94;100791.00;4976576;28;20030;-69
2023/09/20 01:43:06;;;;;;;5.20;1.10;;;;;;;24.25;55.79;100795.31;4993093;28;20109;-69
2023/09/20 01:45:34;;;;;;;9.07;2.00;;;;;;;24.65;53.66;100795.25;4976625;28;20073;-69
2023/09/20 01:48:00;;;;;;;7.63;1.73;;;;;;;25.19;52.76;100783.38;4975997;28;20467;-69
2023/09/20 01:50:27;;;;;;;7.72;1.65;;;;;;;25.30;52.08;100789.78;4991933;28;20033;-70
2023/09/20 01:52:58;;;;;;;7.72;1.98;;;;;;;24.40;54.20;100790.72;4976237;28;20029;-70
2023/09/20 01:55:25;;;;;;;4.65;1.60;;;;;;;24.31;53.98;100791.34;4976297;28;20729;-69
2023/09/20 01:57:55;;;;;;;7.93;2.00;;;;;;;24.86;53.39;100792.84;4993245;28;20097;-69
2023/09/20 02:00:29;;;;;;;7.40;2.10;;;;;;;24.80;53.56;100793.31;4993592;28;20026;-70
2023/09/20 02:02:57;;;;;;;7.05;2.15;;;;;;;23.82;55.71;100791.00;4975862;28;20034;-70
2023/09/20 02:05:23;;;;;;;5.38;1.50;;;;;;;24.22;54.14;100788.34;4975558;28;20027;-69
2023/09/20 02:07:52;;;;;;;5.05;2.00;;;;;;;24.72;53.10;100784.97;4993735;28;20104;-69
2023/09/20 02:10:19;;;;;;;3.20;1.38;;;;;;;23.21;57.58;100780.72;4975526;28;20026;-69
2023/09/20 02:12:51;;;;;;;3.25;1.83;;;;;;;23.79;56.27;100777.00;4976084;28;20490;-70
2023/09/20 02:15:17;;;;;;;3.13;1.08;;;;;;;23.77;55.88;100779.78;4993509;28;20022;-69
2023/09/20 02:17:44;;;;;;;6.85;1.25;;;;;;;23.97;55.44;100777.63;4975218;28;20042;-69
2023/09/20 02:20:11;;;;;;;6.15;1.70;;;;;;;24.13;54.65;100777.44;4975458;28;20026;-70
2023/09/20 02:22:38;;;;;;;9.27;1.85;;;;;;;24.15;54.94;100771.03;4980370;28;20517;-70
2023/09/20 02:25:10;;;;;;;9.43;1.77;;;;;;;23.23;57.20;100777.09;5012031;28;20104;-69
2023/09/20 02:27:35;;;;;;;2.85;1.30;;;;;;;24.37;54.66;100764.22;4995287;28;20034;-69
2023/09/20 02:30:00;;;;;;;3.53;1.48;;;;;;;23.64;55.67;100762.88;5012767;28;20032;-69
2023/09/20 02:32:26;;;;;;;5.25;1.85;;;;;;;23.39;56.59;100756.47;5010688;28;20540;-69
2023/09/20 02:34:52;;;;;;;5.05;2.00;;;;;;;23.68;56.98;100756.38;5011052;28;20030;-69
2023/09/20 02:37:18;;;;;;;9.90;1.98;;;;;;;23.61;56.59;100755.06;5013007;28;20030;-69
2023/09/20 02:39:45;;;;;;;4.05;1.50;;;;;;;24.12;55.04;100743.69;5011629;28;20029;-70
2023/09/20 02:42:10;;;;;;;7.13;1.83;;;;;;;22.92;58.66;100744.38;5010994;28;20352;-69
2023/09/20 02:44:36;;;;;;;8.00;1.83;;;;;;;23.36;58.38;100746.03;5011368;28;20498;-69
2023/09/20 02:47:01;;;;;;;5.60;1.92;;;;;;;23.38;57.87;100733.44;5009494;28;20118;-69
2023/09/20 02:49:26;;;;;;;5.03;1.73;;;;;;;23.83;56.34;100734.00;4995002;28;20038;-70
2023/09/20 02:51:52;;;;;;;4.32;1.30;;;;;;;23.40;57.10;100731.53;5011884;28;20117;-69
2023/09/20 02:54:19;;;;;;;4.45;1.40;;;;;;;24.31;55.14;100732.59;4993952;28;20405;-69
2023/09/20 02:56:44;;;;;;;7.88;1.48;;;;;;;24.31;54.06;100729.94;4994779;28;20048;-69
2023/09/20 02:59:10;;;;;;;4.47;1.40;;;;;;;23.35;57.49;100725.63;5010686;28;20421;-69
2023/09/20 03:01:35;;;;;;;9.27;1.95;;;;;;;23.36;57.24;100724.69;5009898;28;20029;-69
2023/09/20 03:04:01;;;;;;;3.55;1.55;;;;;;;24.30;55.23;100725.53;4994215;28;20053;-69
2023/09/20 03:06:29;;;;;;;4.00;1.77;;;;;;;23.78;55.75;100725.47;5011717;28;20034;-69
2023/09/20 03:08:54;;;;;;;5.68;1.30;;;;;;;24.62;53.35;100709.97;5010406;28;20129;-69
2023/09/20 03:11:21;;;;;;;6.35;1.85;;;;;;;23.58;55.56;100717.94;4994436;28;20116;-69
2023/09/20 03:13:47;;;;;;;7.28;1.38;;;;;;;24.66;52.99;100705.22;4993447;28;20041;-69
2023/09/20 03:16:18;;;;;;;3.42;1.30;;;;;;;23.62;55.81;100708.78;4994152;28;20025;-69
2023/09/20 03:18:45;;;;;;;2.90;1.30;;;;;;;23.95;55.97;100712.81;4994423;28;20574;-69
2023/09/20 03:21:11;;;;;;;4.38;1.60;;;;;;;23.36;57.09;100706.03;5011185;28;20203;-69
2023/09/20 03:23:37;;;;;;;4.13;1.35;;;;;;;23.24;57.39;100698.84;4993680;28;20053;-69
2023/09/20 03:26:04;;;;;;;3.22;1.38;;;;;;;24.11;55.46;100697.47;5011504;28;20029;-69
2023/09/20 03:28:32;;;;;;;4.25;1.45;;;;;;;23.77;55.67;100707.75;5011218;28;20022;-69
2023/09/20 03:31:01;;;;;;;4.00;1.60;;;;;;;23.13;57.42;100702.19;5010073;28;20033;-70
2023/09/20 03:33:31;;;;;;;7.82;1.95;;;;;;;23.96;55.08;100695.81;5011349;28;20379;-70
2023/09/20 03:35:58;;;;;;;5.40;1.70;;;;;;;23.98;55.40;100699.25;5010566;28;20036;-69
2023/09/20 03:38:24;;;;;;;6.00;1.50;;;;;;;23.63;55.27;100691.78;4994019;28;20381;-69
2023/09/20 03:40:49;;;;;;;7.47;1.77;;;;;;;24.05;55.30;100695.19;4993849;28;20092;-69
2023/09/20 03:43:15;;;;;;;7.00;1.45;;;;;;;22.95;59.08;100685.56;4992494;28;20121;-69
2023/09/20 03:45:41;;;;;;;2.35;1.33;;;;;;;24.15;55.15;100690.94;4993775;28;20547;-69
2023/09/20 03:48:07;;;;;;;5.85;1.85;;;;;;;23.28;58.94;100684.34;4993860;28;20434;-70
2023/09/20 03:50:33;;;;;;;9.05;1.95;;;;;;;23.53;56.32;100684.44;5010630;28;20056;-69
2023/09/20 03:53:00;;;;;;;4.78;1.25;;;;;;;23.48;57.18;100685.66;4993307;28;20087;-70
2023/09/20 03:55:25;;;;;;;6.35;1.23;;;;;;;23.94;54.82;100685.25;5011130;28;20106;-69
2023/09/20 03:57:51;;;;;;;4.80;1.48;;;;;;;23.33;57.23;100682.25;5008972;28;20022;-69
2023/09/20 04:00:18;;;;;;;5.00;1.50;;;;;;;23.74;55.79;100681.28;4993443;28;20401;-70
2023/09/20 04:02:45;;;;;;;3.85;1.00;;;;;;;24.18;54.80;100669.38;5010461;28;20025;-70
2023/09/20 04:05:13;;;;;;;4.03;1.40;;;;;;;23.76;56.23;100679.34;4993229;28;20025;-69
2023/09/20 04:07:39;;;;;;;3.95;1.35;;;;;;;23.46;56.96;100677.78;4993238;28;20497;-70
2023/09/20 04:10:07;;;;;;;7.50;2.15;;;;;;;23.10;58.28;100675.72;4992550;28;20032;-69
2023/09/20 04:12:32;;;;;;;3.50;1.50;;;;;;;22.87;59.25;100665.59;4993200;28;20109;-69
2023/09/20 04:14:57;;;;;;;3.63;1.20;;;;;;;22.81;59.76;100676.63;5009060;28;20530;-69
2023/09/20 04:17:25;;;;;;;3.95;1.35;;;;;;;23.51;56.93;100670.31;5010501;28;20040;-69
2023/09/20 04:19:51;;;;;;;4.22;1.42;;;;;;;24.72;53.80;100649.53;4992785;28;20014;-68
2023/09/20 04:22:17;;;;;;;5.72;1.80;;;;;;;24.42;54.60;100649.06;4993061;28;20450;-69
2023/09/20 04:24:42;;;;;;;1.65;1.25;;;;;;;23.41;57.62;100650.59;5009048;28;20029;-69
2023/09/20 04:27:08;;;;;;;5.70;1.55;;;;;;;23.55;57.76;100644.31;5009092;28;20389;-70
2023/09/20 04:29:35;;;;;;;1.90;1.10;;;;;;;23.31;58.44;100642.31;5009373;28;20120;-69
2023/09/20 04:32:01;;;;;;;2.72;1.23;;;;;;;24.10;55.44;100634.34;5009384;28;20112;-70
2023/09/20 04:34:27;;;;;;;6.65;1.60;;;;;;;23.03;58.85;100643.28;4992866;28;20125;-70
2023/09/20 04:36:52;;;;;;;2.67;1.23;;;;;;;23.73;56.80;100652.88;4992509;28;20030;-69
2023/09/20 04:39:20;;;;;;;4.57;1.13;;;;;;;23.46;56.86;100648.44;5008747;28;20022;-69
2023/09/20 04:41:46;;;;;;;4.38;1.65;;;;;;;23.28;58.75;100641.69;4992573;28;20014;-69
2023/09/20 04:44:13;;;;;;;5.95;1.67;;;;;;;23.40;57.64;100640.00;4992425;28;20030;-69
2023/09/20 04:46:39;;;;;;;4.25;1.35;;;;;;;22.71;59.99;100635.56;4992046;28;20022;-69
2023/09/20 04:49:05;;;;;;;3.00;1.70;;;;;;;23.59;56.53;100639.59;5009879;28;20026;-70
2023/09/20 04:51:33;;;;;;;4.25;2.08;;;;;;;23.92;55.59;100638.28;4992587;28;20036;-69
2023/09/20 04:53:59;;;;;;;4.93;1.50;;;;;;;23.74;56.23;100633.25;4991354;28;20033;-69
2023/09/20 04:56:27;;;;;;;4.53;1.50;;;;;;;22.71;59.63;100632.91;4992669;28;20026;-69
2023/09/20 04:58:52;;;;;;;1.77;1.10;;;;;;;23.45;57.10;100636.09;4992109;28;20494;-69
2023/09/20 05:01:18;;;;;;;3.33;1.52;;;;;;;22.99;59.01;100637.28;5009996;28;20029;-70
2023/09/20 05:03:43;;;;;;;4.03;1.20;;;;;;;22.92;58.73;100635.97;4992662;28;20456;-70
2023/09/20 05:06:09;;;;;;;3.15;1.25;;;;;;;22.29;61.47;100637.28;5007580;28;20022;-70
2023/09/20 05:08:35;;;;;;;4.43;1.20;;;;;;;23.05;59.28;100641.34;5009943;28;20652;-70
2023/09/20 05:11:03;;;;;;;4.93;1.52;;;;;;;22.43;60.98;100645.28;5009036;28;20501;-72
2023/09/20 05:13:28;;;;;;;7.97;2.00;;;;;;;22.27;62.20;100639.19;5008023;28;20025;-70
2023/09/20 05:15:54;;;;;;;3.20;1.30;;;;;;;22.59;61.66;100628.34;5007907;28;20053;-69
2023/09/20 05:18:20;;;;;;;3.70;1.48;;;;;;;23.22;58.35;100637.63;5008927;28;20022;-70
2023/09/20 05:20:45;;;;;;;5.78;1.40;;;;;;;22.74;60.99;100627.38;4991278;28;20130;-70
2023/09/20 05:23:11;;;;;;;3.17;1.20;;;;;;;23.23;58.18;100633.13;5009859;28;20133;-69
2023/09/20 05:25:37;;;;;;;2.78;1.13;;;;;;;22.21;63.62;100635.09;4992183;28;20528;-70
2023/09/20 05:28:03;;;;;;;4.28;1.80;;;;;;;23.19;58.35;100633.34;5007122;28;20022;-70
2023/09/20 05:30:30;;;;;;;4.60;1.30;;;;;;;22.44;61.07;100631.03;5008542;28;20482;-70
2023/09/20 05:32:55;;;;;;;5.40;1.40;;;;;;;23.00;60.27;100633.66;4991797;28;20022;-70
2023/09/20 05:35:21;;;;;;;6.35;2.03;;;;;;;22.73;61.39;100628.31;5009117;28;20022;-70
2023/09/20 05:37:46;;;;;;;4.00;1.20;;;;;;;22.42;62.39;100632.94;4991869;28;20045;-70
2023/09/20 05:40:17;;;;;;;3.70;2.22;;;;;;;22.62;61.17;100628.16;5009167;28;20034;-70
2023/09/20 05:42:47;;;;;;;4.70;2.00;;;;;;;22.09;63.91;100626.09;5007708;28;20029;-70
2023/09/20 05:45:13;;;;;;;6.40;2.25;;;;;;;22.65;61.37;100623.47;4991307;28;20108;-70
2023/09/20 05:47:42;;;;;;;4.28;1.33;;;;;;;22.71;61.62;100627.56;5009705;28;20026;-70
2023/09/20 05:50:13;;;;;;;4.93;1.40;;;;;;;23.03;59.86;100628.13;4990514;28;20030;-70
2023/09/20 05:52:43;;;;;;;4.13;1.40;;;;;;;22.09;63.43;100633.19;5009629;28;20490;-70
2023/09/20 05:55:13;;;;;;;2.00;1.20;;;;;;;22.79;59.52;100629.72;5008844;28;20375;-69
2023/09/20 05:57:43;;;;;;;7.47;1.95;;;;;;;23.49;57.48;100640.25;5009795;28;20056;-70
2023/09/20 06:00:22;;;;;;;2.75;1.40;;;;;;;22.32;62.11;100629.09;5008805;28;20018;-70
2023/09/20 06:02:49;;;;;;;3.47;1.30;;;;;;;22.69;62.19;100640.13;5008888;28;20026;-70
2023/09/20 06:05:15;;;;;;;4.63;1.48;;;;;;;22.41;63.01;100639.22;5007800;28;20108;-70
2023/09/20 06:07:41;;;;;;;5.97;1.42;;;;;;;22.51;62.77;100636.81;4991571;28;20116;-70
2023/09/20 06:10:10;;;;;;;2.53;1.33;;;;;;;22.79;60.83;100635.94;4990525;28;20076;-70
2023/09/20 06:12:36;;;;;;;3.40;1.10;;;;;;;22.95;60.01;100634.91;4991800;28;20061;-70
2023/09/20 06:15:03;;;;;;;1.75;1.13;;;;;;;22.58;61.93;100637.28;4991156;28;20112;-70
2023/09/20 06:17:29;;;;;;;6.72;1.73;;;;;;;22.33;63.09;100633.47;4991175;28;20021;-70
2023/09/20 06:19:57;;;;;;;6.90;1.52;;;;;;;22.68;63.11;100625.09;5009123;28;20034;-70
2023/09/20 06:22:23;;;;;;;1.38;1.10;;;;;;;23.33;59.41;100635.09;4992727;28;20021;-70
2023/09/20 06:24:48;;;;;;;4.28;1.15;;;;;;;22.39;63.20;100633.13;5010751;28;20526;-70
2023/09/20 06:27:14;;;;;;;6.85;1.73;;;;;;;22.56;62.68;100629.41;5012499;28;20033;-70
2023/09/20 06:29:39;;;;;;;6.68;1.30;;;;;;;23.18;60.64;100631.63;4995172;28;20049;-71
2023/09/20 06:32:05;;;;;;;4.88;1.30;;;;;;;22.79;61.74;100633.25;4993695;28;20022;-70
2023/09/20 06:34:30;;;;;;;4.80;1.20;;;;;;;22.52;61.90;100631.41;4994779;28;20044;-70
2023/09/20 06:36:56;;;;;;;2.17;1.48;;;;;;;23.33;59.44;100623.56;4994689;28;20105;-69
2023/09/20 06:39:21;;;;;;;4.18;1.00;;;;;;;22.97;61.58;100633.00;4994230;28;20030;-70
2023/09/20 06:41:48;;;;;;;3.70;1.55;;;;;;;23.42;61.46;100638.09;5012733;28;20026;-70
2023/09/20 06:44:13;;;;;;;3.83;1.42;;;;;;;22.64;62.21;100627.09;5011872;28;20018;-70
2023/09/20 06:46:42;;;;;;;2.45;1.30;;;;;;;22.38;63.69;100634.09;5010487;28;20076;-70
2023/09/20 06:49:08;;;;;;;6.88;1.70;;;;;;;23.65;59.54;100628.53;5011742;28;20033;-70
2023/09/20 06:51:34;;;;;;;2.03;1.05;;;;;;;23.38;60.34;100632.09;4993964;28;20053;-70
2023/09/20 06:54:00;;;;;;;1.88;1.25;;;;;;;23.64;59.40;100618.81;4994123;28;20018;-70
2023/09/20 06:56:26;;;;;;;3.38;1.50;;;;;;;23.84;58.26;100634.31;5012116;28;20021;-70
2023/09/20 06:58:55;;;;;;;5.93;1.73;;;;;;;23.38;59.38;100624.09;5011161;28;20176;-70
2023/09/20 07:01:20;;;;;;;2.83;1.58;;;;;;;23.53;57.83;100620.41;5012289;28;20032;-70
2023/09/20 07:03:46;;;;;;;1.67;1.33;;;;;;;23.03;60.77;100622.78;4994403;28;20394;-70
2023/09/20 07:06:11;;;;;;;4.68;1.90;;;;;;;23.86;57.30;100628.84;4993317;28;20037;-70
2023/09/20 07:08:37;;;;;;;2.30;1.65;;;;;;;23.54;59.29;100626.59;5012100;28;20033;-70
2023/09/20 07:11:04;;;;;;;1.95;1.55;;;;;;;23.77;59.77;100625.03;4993823;28;20026;-70
2023/09/20 07:13:32;;;;;;;3.40;1.25;;;;;;;23.14;60.44;100629.28;5009975;28;20033;-70
2023/09/20 07:15:59;;;;;;;1.80;1.45;;;;;;;22.94;61.15;100634.03;5010163;28;20023;-70
2023/09/20 07:18:25;;;;;;;1.77;1.40;;;;;;;23.50;59.45;100635.75;4994241;28;20018;-69
2023/09/20 07:20:54;;;;;;;3.88;1.48;;;;;;;24.53;55.96;100636.63;5010871;28;20056;-70
2023/09/20 07:23:20;;;;;;;4.13;1.45;;;;;;;24.32;56.94;100640.84;4994055;28;20053;-69
2023/09/20 07:25:49;;;;;;;7.32;1.50;;;;;;;24.08;57.39;100651.44;4994145;28;20389;-70
2023/09/20 07:28:18;;;;;;;4.25;1.27;;;;;;;23.59;59.14;100650.28;5010584;28;20036;-70
2023/09/20 07:30:47;;;;;;;4.68;1.52;;;;;;;23.99;57.00;100664.44;4993970;28;20117;-70
2023/09/20 07:33:19;;;;;;;3.33;1.88;;;;;;;22.62;61.62;100652.13;5010569;28;20022;-70
2023/09/20 07:35:47;;;;;;;5.00;1.55;;;;;;;23.73;59.08;100650.22;5010795;28;20041;-70
2023/09/20 07:38:18;;;;;;;3.70;1.42;;;;;;;23.86;57.80;100647.53;4993517;28;20033;-70
2023/09/20 07:40:49;;;;;;;2.20;1.40;;;;;;;23.59;59.28;100650.28;5009583;28;20030;-70
2023/09/20 07:43:15;;;;;;;1.40;1.20;;;;;;;23.84;57.44;100655.66;5009612;28;20033;-69
2023/09/20 07:45:41;;;;;;;2.60;1.50;;;;;;;24.02;57.78;100652.72;4993411;28;20124;-70
2023/09/20 07:48:16;;;;;;;3.03;1.60;;;;;;;24.45;56.28;100654.16;4992554;28;20128;-70
2023/09/20 07:50:44;;;;;;;3.30;1.67;;;;;;;23.10;60.17;100654.38;4993854;28;20026;-69
2023/09/20 07:53:10;;;;;;;8.18;1.52;;;;;;;23.45;60.64;100654.75;5009384;28;20018;-70
2023/09/20 07:55:44;;;;;;;4.47;1.80;;;;;;;22.59;62.14;100666.50;5009158;28;20021;-70
2023/09/20 07:58:13;;;;;;;2.50;1.48;;;;;;;23.16;61.51;100668.22;5009152;28;20022;-70
2023/09/20 08:00:44;;;;;;;3.00;1.40;;;;;;;22.75;62.10;100663.72;5011154;28;20521;-70
2023/09/20 08:03:12;;;;;;;1.73;1.63;;;;;;;22.18;65.43;100668.06;4992218;28;20486;-70
2023/09/20 08:05:38;;;;;;;6.85;2.15;;;;;;;22.72;64.57;100671.03;5009574;28;20022;-70
2023/09/20 08:08:07;;;;;;;4.32;1.50;;;;;;;23.06;60.91;100675.03;5010566;28;20034;-69
2023/09/20 08:10:37;;;;;;;2.95;1.73;;;;;;;24.25;57.74;100684.94;5008559;28;20026;-70
2023/09/20 08:13:05;;;;;;;6.70;2.28;;;;;;;24.08;56.98;100676.28;4992901;28;20516;-70
2023/09/20 08:15:37;;;;;;;5.93;1.85;;;;;;;23.12;60.87;100680.03;5011003;28;20486;-69
2023/09/20 08:20:48;;;;;;;2.70;1.73;;;;;;;23.25;60.54;100673.88;5011154;28;20104;-70
2023/09/20 09:01:38;;;;;;;3.92;1.25;;;;;;;24.11;57.06;100668.09;5010092;28;20041;-70
2023/09/20 09:04:09;;;;;;;2.97;1.40;;;;;;;23.91;57.41;100658.78;5009861;28;20824;-70
2023/09/20 09:06:35;;;;;;;1.92;1.60;;;;;;;22.96;61.43;100658.81;5007854;28;20029;-71
2023/09/20 09:09:02;;;;;;;4.40;1.60;;;;;;;24.71;54.97;100655.84;5009235;28;20560;-70
2023/09/20 09:11:28;;;;;;;2.50;1.50;;;;;;;24.18;56.70;100664.03;5009989;28;20030;-70
2023/09/20 09:13:57;;;;;;;5.95;1.90;;;;;;;24.37;56.28;100668.06;5007455;28;20041;-69
2023/09/20 09:16:33;;;;;;;1.75;1.63;;;;;;;23.98;57.03;100656.56;5009943;28;20030;-69
2023/09/20 09:18:58;;;;;;;3.15;1.38;;;;;;;24.41;56.65;100660.69;5009728;28;20030;-70
2023/09/20 09:21:25;;;;;;;4.35;1.67;;;;;;;24.26;56.48;100659.97;5008104;28;20404;-70
2023/09/20 09:23:51;;;;;;;7.50;2.17;;;;;;;23.20;60.23;100664.38;5009421;28;20225;-70
2023/09/20 09:26:17;;;;;;;5.65;1.60;;;;;;;24.03;59.31;100667.78;4991531;28;20100;-70
2023/09/20 09:28:46;;;;;;;3.05;1.98;;;;;;;23.83;58.79;100667.28;5009805;28;20441;-70
2023/09/20 09:31:14;;;;;;;4.93;2.30;;;;;;;24.67;55.58;100664.19;5009123;28;20126;-70
2023/09/20 09:33:39;;;;;;;5.03;2.20;;;;;;;24.50;56.40;100658.22;4991251;28;20030;-70
2023/09/20 09:36:06;;;;;;;4.93;2.13;;;;;;;24.73;56.00;100653.09;5009191;28;20034;-70
2023/09/20 09:38:34;;;;;;;4.70;2.22;;;;;;;24.74;56.55;100662.78;5009829;28;20034;-70
2023/09/20 09:41:01;;;;;;;5.88;2.40;;;;;;;23.84;58.25;100669.00;4990612;28;20029;-70
2023/09/20 09:43:31;;;;;;;2.25;1.92;;;;;;;23.85;58.10;100668.03;4992235;28;20146;-70
2023/09/20 09:46:09;;;;;;;1.90;1.70;;;;;;;24.69;56.00;100656.94;4991535;28;20117;-70
2023/09/20 09:48:39;;;;;;;3.22;1.95;;;;;;;24.71;55.37;100644.31;4991389;28;20109;-69
2023/09/20 09:51:09;;;;;;;4.88;1.75;;;;;;;25.25;53.51;100640.31;5009192;28;20064;-70
2023/09/20 09:53:36;;;;;;;4.13;2.20;;;;;;;23.84;57.03;100650.31;5009781;28;20044;-70
2023/09/20 09:56:06;;;;;;;5.35;1.70;;;;;;;24.26;56.05;100643.94;4991177;28;20032;-70
2023/09/20 09:58:33;;;;;;;4.00;2.25;;;;;;;24.45;56.33;100632.81;5013315;28;20030;-70
2023/09/20 10:01:03;;;;;;;5.68;3.10;;;;;;;24.25;57.31;100636.88;5011596;28;20450;-70
2023/09/20 10:03:34;;;;;;;4.45;2.25;;;;;;;25.19;53.48;100625.59;4995050;28;20105;-70
2023/09/20 10:06:05;;;;;;;2.78;1.90;;;;;;;24.75;54.01;100627.09;5012871;28;20132;-69
2023/09/20 10:08:34;;;;;;;5.07;1.77;;;;;;;24.14;56.67;100625.16;4994793;28;20084;-70
2023/09/20 10:11:02;;;;;;;4.90;1.90;;;;;;;24.88;54.88;100619.88;5012706;28;20038;-71
2023/09/20 10:13:29;;;;;;;10.25;1.90;;;;;;;24.99;54.25;100612.88;4995561;28;20103;-70
2023/09/20 10:15:57;;;;;;;3.97;1.70;;;;;;;24.31;55.28;100609.75;5010507;28;20033;-70
2023/09/20 10:18:28;;;;;;;2.90;1.70;;;;;;;24.87;54.73;100617.31;4995315;28;20045;-70
2023/09/20 10:21:04;;;;;;;1.83;1.58;;;;;;;25.01;53.97;100618.97;4994910;28;20390;-70
2023/09/20 10:23:34;;;;;;;10.07;1.48;;;;;;;25.54;52.27;100602.53;5012287;28;20514;-70
2023/09/20 10:26:00;;;;;;;3.42;1.40;;;;;;;24.92;54.42;100598.25;4994522;28;20034;-69
2023/09/20 10:28:26;;;;;;;3.40;1.60;;;;;;;24.85;54.48;100603.19;5012773;28;20036;-70
2023/09/20 10:30:55;;;;;;;2.53;1.30;;;;;;;24.49;55.36;100592.38;4993830;28;20029;-70
2023/09/20 10:33:45;;;;;;;1.75;1.20;;;;;;;25.71;53.07;100590.53;4995096;28;20108;-70
2023/09/20 10:36:23;;;;;;;5.20;1.02;;;;;;;25.21;53.36;100582.69;4994626;28;20037;-69
2023/09/20 10:38:49;;;;;;;1.95;1.35;;;;;;;25.42;53.87;100590.97;4994267;28;20037;-70
2023/09/20 10:41:16;;;;;;;1.52;1.30;;;;;;;25.73;52.42;100599.28;5012217;28;20030;-70
2023/09/20 10:43:43;;;;;;;3.78;1.17;;;;;;;24.90;53.98;100596.53;4994139;28;20397;-70
2023/09/20 10:46:09;;;;;;;4.13;1.42;;;;;;;25.39;53.25;100596.56;5012040;28;20119;-70
2023/09/20 10:48:39;;;;;;;1.65;1.30;;;;;;;26.16;50.34;100600.44;4994912;28;20065;-70
2023/09/20 10:51:06;;;;;;;2.58;1.40;;;;;;;26.68;49.71;100600.72;4993635;28;20033;-70
2023/09/20 10:53:58;;;;;;;1.98;1.45;;;;;;;25.36;52.98;100592.28;5010969;28;20030;-69
2023/09/20 10:56:53;;;;;;;4.25;1.40;;;;;;;25.47;52.61;100578.09;5009491;28;20059;-70
2023/09/20 10:59:21;;;;;;;7.80;1.80;;;;;;;25.58;51.94;100571.88;5011491;28;20022;-70
2023/09/20 11:01:52;;;;;;;3.47;1.33;;;;;;;25.62;52.39;100570.66;4994407;28;20049;-70
2023/09/20 11:04:18;;;;;;;2.40;1.60;;;;;;;25.82;51.88;100579.00;4994477;28;20030;-70
2023/09/20 11:06:48;;;;;;;2.33;1.42;;;;;;;26.69;48.07;100575.63;5011555;28;20394;-70
2023/09/20 11:09:13;;;;;;;1.50;1.40;;;;;;;26.12;51.04;100573.06;5009769;28;20040;-71
2023/09/20 11:11:39;;;;;;;3.47;1.67;;;;;;;27.00;47.93;100575.81;5011653;28;20468;-69
2023/09/20 11:14:06;;;;;;;3.08;1.80;;;;;;;26.34;48.62;100568.66;4994114;28;20026;-71
2023/09/20 11:16:31;;;;;;;1.38;1.00;;;;;;;26.31;48.97;100572.44;4994432;28;20029;-70
2023/09/20 11:18:57;;;;;;;1.73;1.27;;;;;;;26.14;49.35;100560.38;4993255;28;20397;-70
2023/09/20 11:21:24;;;;;;;1.95;1.38;;;;;;;27.02;47.75;100565.78;4994379;28;20022;-70
2023/09/20 11:23:53;;;;;;;4.13;1.80;;;;;;;26.73;47.59;100561.03;5011538;28;20057;-70
2023/09/20 11:26:28;;;;;;;3.60;1.50;;;;;;;26.15;49.35;100567.44;4993614;28;20022;-70
2023/09/20 11:28:54;;;;;;;2.58;1.25;;;;;;;25.94;49.57;100571.78;4993986;28;20164;-70
2023/09/20 11:31:28;;;;;;;2.45;1.60;;;;;;;26.08;48.15;100576.97;4994214;28;20121;-70
2023/09/20 11:33:58;;;;;;;4.93;1.50;;;;;;;27.58;45.99;100568.19;4993134;28;20030;-70
2023/09/20 11:36:25;;;;;;;3.25;1.70;;;;;;;27.21;45.44;100570.47;5010466;28;20061;-70
2023/09/20 11:38:51;;;;;;;4.13;1.55;;;;;;;26.10;48.44;100575.00;4993678;28;20038;-69
2023/09/20 11:41:17;;;;;;;2.50;1.67;;;;;;;25.67;49.23;100586.38;5009646;28;20017;-70
2023/09/20 11:43:45;;;;;;;5.15;1.48;;;;;;;25.67;49.16;100567.66;5010023;28;20037;-70
2023/09/20 11:46:10;;;;;;;3.40;1.45;;;;;;;26.25;47.76;100556.84;5011118;28;20203;-70
2023/09/20 11:48:37;;;;;;;1.50;1.40;;;;;;;25.82;48.31;100550.38;5009594;28;20052;-70
2023/09/20 11:51:03;;;;;;;6.40;1.60;;;;;;;26.69;47.23;100559.56;5009645;28;20037;-69
2023/09/20 11:53:32;;;;;;;1.92;1.45;;;;;;;26.96;46.64;100556.44;5011656;28;20033;-70
2023/09/20 11:56:03;;;;;;;4.30;1.67;;;;;;;28.07;44.21;100556.88;4992489;28;20077;-70
2023/09/20 11:58:33;;;;;;;3.72;1.60;;;;;;;27.71;43.99;100542.97;4993635;28;20099;-70
2023/09/20 12:01:00;;;;;;;3.42;1.20;;;;;;;27.50;45.24;100549.22;4992498;28;20033;-69
2023/09/20 12:03:28;;;;;;;6.60;1.20;;;;;;;27.09;45.96;100553.56;4993485;28;20106;-70
2023/09/20 12:05:53;;;;;;;2.75;1.40;;;;;;;26.27;46.31;100537.97;4993100;28;20042;-70
2023/09/20 12:08:19;;;;;;;3.28;1.58;;;;;;;27.59;44.22;100532.31;5009026;28;20061;-70